This is the latest recevied weather packets stored in our database for station/object PU3XGS-13. If no packets are shown the sender has not sent any weather packets the latest 10 day(s).
| Time | Temp. | Humidity | Pressure | Rain* | Wind** | Luminosity | Snow |
|---|---|---|---|---|---|---|---|
| 1777395391 | 25.56° C | 27% | 1017.1 hPa | - | - | - | - |
| 1777392992 | 26.11° C | 26% | 1018 hPa | - | - | - | - |
| 1777388192 | 25° C | 30% | 1019.4 hPa | - | - | - | - |
| 1777385791 | 23.33° C | 36% | 1019.9 hPa | - | - | - | - |
| 1777383392 | 22.22° C | 40% | 1020.4 hPa | - | - | - | - |
| 1777380992 | 20.56° C | 44% | 1020.4 hPa | - | - | - | - |
| 1777378592 | 17.78° C | 50% | 1020.5 hPa | - | - | - | - |
| 1777376191 | 16.67° C | 52% | 1020.3 hPa | - | - | - | - |
| 1777373791 | 18.89° C | 45% | 1019.7 hPa | - | - | - | - |
| 1777371391 | 15° C | 54% | 1019.5 hPa | - | - | - | - |
| 1777368991 | 14.44° C | 54% | 1018.9 hPa | - | - | - | - |
| 1777366591 | 15.56° C | 53% | 1018.4 hPa | - | - | - | - |
| 1777364192 | 15.56° C | 54% | 1018 hPa | - | - | - | - |
| 1777361792 | 15.56° C | 52% | 1017.9 hPa | - | - | - | - |
| 1777359392 | 15.56° C | 54% | 1017.7 hPa | - | - | - | - |
| 1777356991 | 16.67° C | 53% | 1017.4 hPa | - | - | - | - |
| 1777354592 | 15.56° C | 54% | 1017.8 hPa | - | - | - | - |
| 1777352191 | 14.44° C | 57% | 1018.1 hPa | - | - | - | - |
| 1777349791 | 15.56° C | 54% | 1018.1 hPa | - | - | - | - |
| 1777347392 | 17.22° C | 52% | 1018 hPa | - | - | - | - |
| 1777344991 | 17.22° C | 51% | 1018.3 hPa | - | - | - | - |
| 1777342592 | 16.11° C | 55% | 1018.5 hPa | - | - | - | - |
| 1777340192 | 18.89° C | 48% | 1018.4 hPa | - | - | - | - |
| 1777337793 | 18.33° C | 48% | 1018.4 hPa | - | - | - | - |
| 1777335391 | 20.56° C | 42% | 1018.1 hPa | - | - | - | - |
* Rain since midnight (hover to see other rain measurements)
** Current wind speed in m/s (hover to see current wind gust speed)